Airfield :
LOGIN :

Register | Disclaimer

   EN    FR    IT 

 










Legend :    VFR   Marginal VFR   IFR   Intensive IFR   Very Intensive IFR
Visi :
Ceiling :
>= 8 km
>= 3000ft
5 to 8 km
1000 to 3000 ft
1500m to 5 km
500 to 1000 ft
800 to 1500m
200 to 500 ft
< 800m
< 200 ft
Symbols :   Thunderstorms  Fog  Heavy snow  Heavy precipitations  Wind > 20 kt
SIGMETs :     Misc.  Thunderstorms  Icing  Turbulence  Mountain Waves  Volcanic Ashes







- Airport Elevation : 1649 ft
- IATA code : HHN


EDFH - Frankfurt-Hahn Rhineland-Palatinate

CURRENT METAR :
  • 181550Z 27011KT 9999 SCT030 06/M00 Q1018

EXPIRED METARs :
  • 181520Z 27011KT 240V310 9999 VCSH SCT027TCU 06/M00 Q1018
  • 181450Z 29013KT 260V320 9999 SCT024 06/01 Q1018
  • 181420Z 29012KT 9999 FEW008 SCT064 05/00 Q1018
  • 181350Z 26008KT 230V300 9999 VCSH FEW005 FEW062TCU 03/01 Q1018
  • 181320Z 34011G22KT 310V040 9999 SHRA BKN016TCU 02/01 Q1018

TAF TAF EDFH
Valid from the 18 at 12:00 until the 19 at 12:00 UTC


181100Z 1812/1912 26011KT 9999 FEW020
TEMPO 1812/1814 27015G25KT 4000 SHSNRA BKN005CB
TEMPO 1814/1817 4500 SHRA BKN020CB
BECMG 1818/1820 27005KT
BECMG 1907/1909 34005KT
No reported NOTAMs for that airfield.



MET'MAP, your aeronautical weather chart ! - Copyright ORBIFLY December 2007 - Disclaimer

ORBIFLY MET'MAP TEAM :

Programming & Development : Alexandra Zaïnal
Concept & Development : Baudouin d'Aumeries
Co-Development & Prog : Marc-Olivier Méhu
Technical & hardware support : Manuel Goepfert

Contact : metmap@orbifly.com




SOURCES & CREDITS :

   NOAA